Ravenwood, Missouri
Current Conditions -  °F | °C
As of 5:15 AM on Wednesday 26 Nov 2014 (Local Time) from KICL Reporting Station
Overcast Overcast  
Wind Chill: 30°   Ceiling: 2000
Heat Index: 36°   Visibility: 10mi
Dew Point: 34°   Wind: 7mph
Humidity: 93%   Direction: 270°W
Pressure: 29.85"   Gusts: NA
Location:  40.35°N, 94.67°W
Report Text: KICL 261115Z AUTO 27006KT 10SM OVC020 02/01 A2985 RMK AO2
Loading
Personal Weather Stations






























Interactive Weather Map New forecast layout! Learn more

10-Day Weather Forecast

Advertisements
Track Severe Weather on mobile